sensor_id;sensor_type;location;lat;lon;timestamp;pressure;altitude;pressure_sealevel;temperature
43292;BMP280;28754;47.700;7.924;2023-05-10T00:00:31;90986.88;;;13.27
43292;BMP280;28754;47.700;7.924;2023-05-10T00:03:18;90993.34;;;13.24
43292;BMP280;28754;47.700;7.924;2023-05-10T00:06:05;90974.59;;;13.24
43292;BMP280;28754;47.700;7.924;2023-05-10T00:08:52;90979.78;;;13.19
43292;BMP280;28754;47.700;7.924;2023-05-10T00:11:38;90985.50;;;13.16
43292;BMP280;28754;47.700;7.924;2023-05-10T00:14:25;90979.59;;;13.15
43292;BMP280;28754;47.700;7.924;2023-05-10T00:17:12;90975.47;;;13.14
43292;BMP280;28754;47.700;7.924;2023-05-10T00:19:58;90979.59;;;13.15
43292;BMP280;28754;47.700;7.924;2023-05-10T00:22:45;90981.88;;;13.17
43292;BMP280;28754;47.700;7.924;2023-05-10T00:25:32;90959.31;;;13.14
43292;BMP280;28754;47.700;7.924;2023-05-10T00:28:18;90980.13;;;13.12
43292;BMP280;28754;47.700;7.924;2023-05-10T00:31:08;90971.47;;;13.08
43292;BMP280;28754;47.700;7.924;2023-05-10T00:33:55;90966.19;;;13.00
43292;BMP280;28754;47.700;7.924;2023-05-10T00:36:45;90976.69;;;13.03
43292;BMP280;28754;47.700;7.924;2023-05-10T00:39:32;90961.84;;;13.01
43292;BMP280;28754;47.700;7.924;2023-05-10T00:42:18;90960.13;;;12.96
43292;BMP280;28754;47.700;7.924;2023-05-10T00:45:06;90972.13;;;13.01
43292;BMP280;28754;47.700;7.924;2023-05-10T00:47:53;90967.34;;;12.94
43292;BMP280;28754;47.700;7.924;2023-05-10T00:50:41;90976.28;;;12.97
43292;BMP280;28754;47.700;7.924;2023-05-10T00:53:30;90976.28;;;12.97
43292;BMP280;28754;47.700;7.924;2023-05-10T00:56:19;90971.22;;;12.92
43292;BMP280;28754;47.700;7.924;2023-05-10T00:59:09;90979.97;;;12.91
43292;BMP280;28754;47.700;7.924;2023-05-10T01:01:56;90998.44;;;12.93
43292;BMP280;28754;47.700;7.924;2023-05-10T01:04:44;90983.88;;;12.88
43292;BMP280;28754;47.700;7.924;2023-05-10T01:07:30;90991.72;;;12.97
43292;BMP280;28754;47.700;7.924;2023-05-10T01:10:17;90993.22;;;12.98
43292;BMP280;28754;47.700;7.924;2023-05-10T01:13:05;90987.09;;;12.94
43292;BMP280;28754;47.700;7.924;2023-05-10T01:15:52;90985.19;;;12.86
43292;BMP280;28754;47.700;7.924;2023-05-10T01:18:42;90997.06;;;12.82
43292;BMP280;28754;47.700;7.924;2023-05-10T01:21:58;90994.22;;;12.83
43292;BMP280;28754;47.700;7.924;2023-05-10T01:25:15;91000.66;;;12.81
43292;BMP280;28754;47.700;7.924;2023-05-10T01:35:03;90985.19;;;12.86
43292;BMP280;28754;47.700;7.924;2023-05-10T01:38:11;91001.94;;;12.83
43292;BMP280;28754;47.700;7.924;2023-05-10T01:41:18;91001.63;;;12.85
43292;BMP280;28754;47.700;7.924;2023-05-10T01:44:31;90996.97;;;12.87
43292;BMP280;28754;47.700;7.924;2023-05-10T01:47:35;90994.00;;;12.80
43292;BMP280;28754;47.700;7.924;2023-05-10T01:50:29;90992.19;;;12.80
43292;BMP280;28754;47.700;7.924;2023-05-10T01:53:19;90996.00;;;12.83
43292;BMP280;28754;47.700;7.924;2023-05-10T01:56:12;91006.50;;;12.86
43292;BMP280;28754;47.700;7.924;2023-05-10T01:59:11;91009.56;;;12.88
43292;BMP280;28754;47.700;7.924;2023-05-10T02:02:35;91007.06;;;12.83
43292;BMP280;28754;47.700;7.924;2023-05-10T02:10:18;91029.91;;;12.85
43292;BMP280;28754;47.700;7.924;2023-05-10T02:13:16;91018.09;;;12.84
43292;BMP280;28754;47.700;7.924;2023-05-10T02:16:06;91026.09;;;12.82
43292;BMP280;28754;47.700;7.924;2023-05-10T02:18:58;91031.13;;;12.87
43292;BMP280;28754;47.700;7.924;2023-05-10T02:21:52;91028.16;;;12.80
43292;BMP280;28754;47.700;7.924;2023-05-10T02:24:45;91026.91;;;12.78
43292;BMP280;28754;47.700;7.924;2023-05-10T02:27:53;91036.94;;;12.79
43292;BMP280;28754;47.700;7.924;2023-05-10T02:30:49;91025.91;;;12.79
43292;BMP280;28754;47.700;7.924;2023-05-10T02:33:43;91031.81;;;12.74
43292;BMP280;28754;47.700;7.924;2023-05-10T02:36:36;91019.75;;;12.75
43292;BMP280;28754;47.700;7.924;2023-05-10T02:39:26;91036.63;;;12.81
43292;BMP280;28754;47.700;7.924;2023-05-10T02:42:18;91031.53;;;12.76
43292;BMP280;28754;47.700;7.924;2023-05-10T02:45:11;91024.88;;;12.75
43292;BMP280;28754;47.700;7.924;2023-05-10T02:47:59;91025.91;;;12.74
43292;BMP280;28754;47.700;7.924;2023-05-10T02:50:50;91027.41;;;12.80
43292;BMP280;28754;47.700;7.924;2023-05-10T02:53:43;91034.34;;;12.79
43292;BMP280;28754;47.700;7.924;2023-05-10T02:56:42;91016.63;;;12.78
43292;BMP280;28754;47.700;7.924;2023-05-10T02:59:29;91018.69;;;12.76
43292;BMP280;28754;47.700;7.924;2023-05-10T03:02:16;91024.84;;;12.80
43292;BMP280;28754;47.700;7.924;2023-05-10T03:05:03;91013.31;;;12.77
43292;BMP280;28754;47.700;7.924;2023-05-10T03:07:51;91027.94;;;12.77
43292;BMP280;28754;47.700;7.924;2023-05-10T03:11:04;91021.25;;;12.76
43292;BMP280;28754;47.700;7.924;2023-05-10T03:17:56;91025.50;;;12.67
43292;BMP280;28754;47.700;7.924;2023-05-10T03:20:51;91036.81;;;12.66
43292;BMP280;28754;47.700;7.924;2023-05-10T03:23:50;91032.97;;;12.64
43292;BMP280;28754;47.700;7.924;2023-05-10T03:26:55;91033.47;;;12.66
43292;BMP280;28754;47.700;7.924;2023-05-10T03:29:46;91037.84;;;12.65
43292;BMP280;28754;47.700;7.924;2023-05-10T03:32:34;91039.59;;;12.69
43292;BMP280;28754;47.700;7.924;2023-05-10T03:35:21;91034.25;;;12.66
43292;BMP280;28754;47.700;7.924;2023-05-10T03:38:10;91026.06;;;12.64
43292;BMP280;28754;47.700;7.924;2023-05-10T03:40:56;91029.88;;;12.67
43292;BMP280;28754;47.700;7.924;2023-05-10T03:43:46;91031.69;;;12.66
43292;BMP280;28754;47.700;7.924;2023-05-10T03:46:33;91018.69;;;12.58
43292;BMP280;28754;47.700;7.924;2023-05-10T03:49:21;91027.66;;;12.60
43292;BMP280;28754;47.700;7.924;2023-05-10T03:52:08;91024.03;;;12.61
43292;BMP280;28754;47.700;7.924;2023-05-10T03:54:55;91036.88;;;12.61
43292;BMP280;28754;47.700;7.924;2023-05-10T03:57:43;91026.94;;;12.55
43292;BMP280;28754;47.700;7.924;2023-05-10T04:04:09;91024.66;;;12.53
43292;BMP280;28754;47.700;7.924;2023-05-10T04:06:56;91042.91;;;12.52
43292;BMP280;28754;47.700;7.924;2023-05-10T04:09:43;91041.09;;;12.52
43292;BMP280;28754;47.700;7.924;2023-05-10T04:12:30;91035.47;;;12.50
43292;BMP280;28754;47.700;7.924;2023-05-10T04:15:16;91040.13;;;12.48
43292;BMP280;28754;47.700;7.924;2023-05-10T04:18:03;91034.97;;;12.48
43292;BMP280;28754;47.700;7.924;2023-05-10T04:20:50;91036.31;;;12.46
43292;BMP280;28754;47.700;7.924;2023-05-10T04:23:37;91029.84;;;12.48
43292;BMP280;28754;47.700;7.924;2023-05-10T04:26:23;91030.91;;;12.47
43292;BMP280;28754;47.700;7.924;2023-05-10T04:29:11;91034.78;;;12.45
43292;BMP280;28754;47.700;7.924;2023-05-10T04:31:58;91042.97;;;12.47
43292;BMP280;28754;47.700;7.924;2023-05-10T04:34:45;91043.75;;;12.47
43292;BMP280;28754;47.700;7.924;2023-05-10T04:37:32;91054.50;;;12.49
43292;BMP280;28754;47.700;7.924;2023-05-10T04:40:19;91048.03;;;12.52
43292;BMP280;28754;47.700;7.924;2023-05-10T04:43:06;91043.66;;;12.52
43292;BMP280;28754;47.700;7.924;2023-05-10T04:45:56;91051.78;;;12.59
43292;BMP280;28754;47.700;7.924;2023-05-10T04:48:42;91049.78;;;12.56
43292;BMP280;28754;47.700;7.924;2023-05-10T04:51:29;91047.72;;;12.58
43292;BMP280;28754;47.700;7.924;2023-05-10T04:54:16;91049.03;;;12.56
43292;BMP280;28754;47.700;7.924;2023-05-10T04:57:03;91051.59;;;12.56
43292;BMP280;28754;47.700;7.924;2023-05-10T04:59:50;91056.44;;;12.57
43292;BMP280;28754;47.700;7.924;2023-05-10T05:02:37;91065.69;;;12.58
43292;BMP280;28754;47.700;7.924;2023-05-10T05:05:24;91061.09;;;12.55
43292;BMP280;28754;47.700;7.924;2023-05-10T05:08:10;91069.09;;;12.54
43292;BMP280;28754;47.700;7.924;2023-05-10T05:10:57;91065.25;;;12.51
43292;BMP280;28754;47.700;7.924;2023-05-10T05:13:44;91063.72;;;12.50
43292;BMP280;28754;47.700;7.924;2023-05-10T05:16:31;91068.84;;;12.50
43292;BMP280;28754;47.700;7.924;2023-05-10T05:19:18;91077.38;;;12.46
43292;BMP280;28754;47.700;7.924;2023-05-10T05:22:07;91078.94;;;12.47
43292;BMP280;28754;47.700;7.924;2023-05-10T05:24:56;91075.66;;;12.41
43292;BMP280;28754;47.700;7.924;2023-05-10T05:27:43;91085.69;;;12.38
43292;BMP280;28754;47.700;7.924;2023-05-10T05:30:30;91083.41;;;12.36
43292;BMP280;28754;47.700;7.924;2023-05-10T05:33:17;91087.00;;;12.35
43292;BMP280;28754;47.700;7.924;2023-05-10T05:36:05;91074.22;;;12.31
43292;BMP280;28754;47.700;7.924;2023-05-10T05:38:52;91085.00;;;12.33
43292;BMP280;28754;47.700;7.924;2023-05-10T05:41:38;91077.28;;;12.33
43292;BMP280;28754;47.700;7.924;2023-05-10T05:44:25;91095.75;;;12.34
43292;BMP280;28754;47.700;7.924;2023-05-10T05:47:13;91094.50;;;12.32
43292;BMP280;28754;47.700;7.924;2023-05-10T05:49:59;91100.47;;;12.28
43292;BMP280;28754;47.700;7.924;2023-05-10T05:52:46;91093.03;;;12.26
43292;BMP280;28754;47.700;7.924;2023-05-10T05:55:33;91101.97;;;12.29
43292;BMP280;28754;47.700;7.924;2023-05-10T05:58:24;91103.97;;;12.32
43292;BMP280;28754;47.700;7.924;2023-05-10T06:01:11;91097.34;;;12.31
43292;BMP280;28754;47.700;7.924;2023-05-10T06:03:58;91097.59;;;12.29
43292;BMP280;28754;47.700;7.924;2023-05-10T06:06:45;91103.78;;;12.28
43292;BMP280;28754;47.700;7.924;2023-05-10T06:09:31;91110.50;;;12.24
43292;BMP280;28754;47.700;7.924;2023-05-10T06:12:20;91117.97;;;12.21
43292;BMP280;28754;47.700;7.924;2023-05-10T06:15:08;91114.63;;;12.20
43292;BMP280;28754;47.700;7.924;2023-05-10T06:17:55;91120.28;;;12.22
43292;BMP280;28754;47.700;7.924;2023-05-10T06:20:42;91119.00;;;12.20
43292;BMP280;28754;47.700;7.924;2023-05-10T06:23:29;91117.47;;;12.19
43292;BMP280;28754;47.700;7.924;2023-05-10T06:26:16;91127.78;;;12.14
43292;BMP280;28754;47.700;7.924;2023-05-10T06:29:03;91126.78;;;12.15
43292;BMP280;28754;47.700;7.924;2023-05-10T06:31:49;91119.09;;;12.10
43292;BMP280;28754;47.700;7.924;2023-05-10T06:34:36;91128.88;;;12.08
43292;BMP280;28754;47.700;7.924;2023-05-10T06:37:23;91132.25;;;12.03
43292;BMP280;28754;47.700;7.924;2023-05-10T06:40:10;91130.75;;;12.02
43292;BMP280;28754;47.700;7.924;2023-05-10T06:42:57;91124.56;;;12.03
43292;BMP280;28754;47.700;7.924;2023-05-10T06:45:43;91128.97;;;11.98
43292;BMP280;28754;47.700;7.924;2023-05-10T06:48:30;91135.69;;;11.94
43292;BMP280;28754;47.700;7.924;2023-05-10T06:51:17;91140.06;;;11.94
43292;BMP280;28754;47.700;7.924;2023-05-10T06:54:04;91139.56;;;11.92
43292;BMP280;28754;47.700;7.924;2023-05-10T06:56:51;91137.22;;;11.95
43292;BMP280;28754;47.700;7.924;2023-05-10T06:59:38;91131.06;;;11.96
43292;BMP280;28754;47.700;7.924;2023-05-10T07:02:25;91138.69;;;12.01
43292;BMP280;28754;47.700;7.924;2023-05-10T07:05:11;91133.31;;;12.02
43292;BMP280;28754;47.700;7.924;2023-05-10T07:07:58;91138.16;;;12.04
43292;BMP280;28754;47.700;7.924;2023-05-10T07:10:45;91142.53;;;12.03
43292;BMP280;28754;47.700;7.924;2023-05-10T07:13:32;91152.28;;;12.01
43292;BMP280;28754;47.700;7.924;2023-05-10T07:16:19;91150.78;;;12.00
43292;BMP280;28754;47.700;7.924;2023-05-10T07:19:06;91150.53;;;11.97
43292;BMP280;28754;47.700;7.924;2023-05-10T07:21:52;91155.13;;;12.00
43292;BMP280;28754;47.700;7.924;2023-05-10T07:24:39;91150.78;;;12.00
43292;BMP280;28754;47.700;7.924;2023-05-10T07:27:26;91161.28;;;12.04
43292;BMP280;28754;47.700;7.924;2023-05-10T07:30:14;91155.09;;;12.05
43292;BMP280;28754;47.700;7.924;2023-05-10T07:33:04;91148.66;;;12.07
43292;BMP280;28754;47.700;7.924;2023-05-10T07:35:51;91151.97;;;12.08
43292;BMP280;28754;47.700;7.924;2023-05-10T07:38:38;91166.88;;;12.06
43292;BMP280;28754;47.700;7.924;2023-05-10T07:41:24;91163.84;;;12.04
43292;BMP280;28754;47.700;7.924;2023-05-10T07:44:11;91164.31;;;12.06
43292;BMP280;28754;47.700;7.924;2023-05-10T07:46:58;91157.66;;;12.05
43292;BMP280;28754;47.700;7.924;2023-05-10T07:49:44;91156.09;;;12.09
43292;BMP280;28754;47.700;7.924;2023-05-10T07:52:31;91161.66;;;12.16
43292;BMP280;28754;47.700;7.924;2023-05-10T07:55:19;91168.34;;;12.17
43292;BMP280;28754;47.700;7.924;2023-05-10T07:58:09;91170.84;;;12.22
43292;BMP280;28754;47.700;7.924;2023-05-10T08:00:56;91167.22;;;12.23
43292;BMP280;28754;47.700;7.924;2023-05-10T08:03:43;91164.97;;;12.16
43292;BMP280;28754;47.700;7.924;2023-05-10T08:06:41;91177.56;;;12.18
43292;BMP280;28754;47.700;7.924;2023-05-10T08:13:03;91169.13;;;12.12
43292;BMP280;28754;47.700;7.924;2023-05-10T08:15:55;91166.09;;;12.10
43292;BMP280;28754;47.700;7.924;2023-05-10T08:18:43;91167.91;;;12.05
43292;BMP280;28754;47.700;7.924;2023-05-10T08:21:30;91165.34;;;12.05
43292;BMP280;28754;47.700;7.924;2023-05-10T08:24:17;91180.19;;;12.08
43292;BMP280;28754;47.700;7.924;2023-05-10T08:27:08;91171.47;;;12.09
43292;BMP280;28754;47.700;7.924;2023-05-10T08:29:55;91170.75;;;12.03
43292;BMP280;28754;47.700;7.924;2023-05-10T08:32:41;91177.53;;;11.90
43292;BMP280;28754;47.700;7.924;2023-05-10T08:35:28;91190.63;;;11.88
43292;BMP280;28754;47.700;7.924;2023-05-10T08:38:14;91184.69;;;11.93
43292;BMP280;28754;47.700;7.924;2023-05-10T08:41:02;91198.25;;;11.98
43292;BMP280;28754;47.700;7.924;2023-05-10T08:43:51;91186.94;;;12.04
43292;BMP280;28754;47.700;7.924;2023-05-10T08:46:41;91189.94;;;12.11
43292;BMP280;28754;47.700;7.924;2023-05-10T08:49:32;91196.50;;;12.22
43292;BMP280;28754;47.700;7.924;2023-05-10T08:52:21;91187.41;;;12.34
43292;BMP280;28754;47.700;7.924;2023-05-10T08:55:09;91184.72;;;12.44
43292;BMP280;28754;47.700;7.924;2023-05-10T08:57:56;91195.75;;;12.44
43292;BMP280;28754;47.700;7.924;2023-05-10T09:00:43;91199.66;;;12.42
43292;BMP280;28754;47.700;7.924;2023-05-10T09:03:30;91199.97;;;12.35
43292;BMP280;28754;47.700;7.924;2023-05-10T09:06:18;91204.09;;;12.32
43292;BMP280;28754;47.700;7.924;2023-05-10T09:09:05;91203.53;;;12.39
43292;BMP280;28754;47.700;7.924;2023-05-10T09:11:53;91207.03;;;12.48
43292;BMP280;28754;47.700;7.924;2023-05-10T09:14:40;91213.16;;;12.52
43292;BMP280;28754;47.700;7.924;2023-05-10T09:17:28;91210.59;;;12.52
43292;BMP280;28754;47.700;7.924;2023-05-10T09:20:16;91210.31;;;12.54
43292;BMP280;28754;47.700;7.924;2023-05-10T09:23:03;91214.97;;;12.52
43292;BMP280;28754;47.700;7.924;2023-05-10T09:26:03;91216.94;;;12.60
43292;BMP280;28754;47.700;7.924;2023-05-10T09:28:57;91215.34;;;12.92
43292;BMP280;28754;47.700;7.924;2023-05-10T09:31:52;91215.69;;;13.45
43292;BMP280;28754;47.700;7.924;2023-05-10T09:34:40;91212.03;;;13.69
43292;BMP280;28754;47.700;7.924;2023-05-10T09:37:31;91213.63;;;13.65
43292;BMP280;28754;47.700;7.924;2023-05-10T09:40:21;91215.56;;;13.55
43292;BMP280;28754;47.700;7.924;2023-05-10T09:43:08;91215.56;;;13.55
43292;BMP280;28754;47.700;7.924;2023-05-10T09:45:57;91208.00;;;13.63
43292;BMP280;28754;47.700;7.924;2023-05-10T09:48:46;91203.19;;;13.75
43292;BMP280;28754;47.700;7.924;2023-05-10T09:51:34;91205.47;;;13.95
43292;BMP280;28754;47.700;7.924;2023-05-10T09:54:21;91207.78;;;14.28
43292;BMP280;28754;47.700;7.924;2023-05-10T09:57:21;91195.63;;;14.46
43292;BMP280;28754;47.700;7.924;2023-05-10T10:00:08;91200.41;;;14.53
43292;BMP280;28754;47.700;7.924;2023-05-10T10:03:02;91198.41;;;14.50
43292;BMP280;28754;47.700;7.924;2023-05-10T10:05:49;91198.69;;;14.48
43292;BMP280;28754;47.700;7.924;2023-05-10T10:08:37;91201.44;;;14.39
43292;BMP280;28754;47.700;7.924;2023-05-10T10:11:24;91204.81;;;14.21
43292;BMP280;28754;47.700;7.924;2023-05-10T10:14:12;91205.06;;;14.06
43292;BMP280;28754;47.700;7.924;2023-05-10T10:17:00;91206.72;;;13.97
43292;BMP280;28754;47.700;7.924;2023-05-10T10:19:48;91209.84;;;13.94
43292;BMP280;28754;47.700;7.924;2023-05-10T10:22:37;91211.84;;;14.15
43292;BMP280;28754;47.700;7.924;2023-05-10T10:25:25;91211.25;;;14.37
43292;BMP280;28754;47.700;7.924;2023-05-10T10:31:36;91205.63;;;14.35
43292;BMP280;28754;47.700;7.924;2023-05-10T10:34:28;91215.53;;;14.28
43292;BMP280;28754;47.700;7.924;2023-05-10T10:37:15;91216.84;;;14.25
43292;BMP280;28754;47.700;7.924;2023-05-10T10:40:33;91215.13;;;14.21
43292;BMP280;28754;47.700;7.924;2023-05-10T10:43:25;91210.56;;;14.18
43292;BMP280;28754;47.700;7.924;2023-05-10T10:46:17;91213.19;;;14.13
43292;BMP280;28754;47.700;7.924;2023-05-10T10:49:10;91218.91;;;14.10
43292;BMP280;28754;47.700;7.924;2023-05-10T10:58:00;91216.69;;;14.04
43292;BMP280;28754;47.700;7.924;2023-05-10T11:00:47;91211.19;;;14.42
43292;BMP280;28754;47.700;7.924;2023-05-10T11:03:33;91208.25;;;14.61
43292;BMP280;28754;47.700;7.924;2023-05-10T11:06:33;91211.88;;;14.60
43292;BMP280;28754;47.700;7.924;2023-05-10T11:09:24;91206.78;;;14.42
43292;BMP280;28754;47.700;7.924;2023-05-10T11:12:11;91206.53;;;14.12
43292;BMP280;28754;47.700;7.924;2023-05-10T11:14:58;91209.84;;;13.94
43292;BMP280;28754;47.700;7.924;2023-05-10T11:17:45;91211.59;;;13.80
43292;BMP280;28754;47.700;7.924;2023-05-10T11:20:40;91223.56;;;13.72
43292;BMP280;28754;47.700;7.924;2023-05-10T11:23:47;91221.75;;;13.72
43292;BMP280;28754;47.700;7.924;2023-05-10T11:26:35;91219.53;;;13.84
43292;BMP280;28754;47.700;7.924;2023-05-10T11:29:22;91214.03;;;13.90
43292;BMP280;28754;47.700;7.924;2023-05-10T11:32:09;91210.91;;;13.93
43292;BMP280;28754;47.700;7.924;2023-05-10T11:34:56;91215.19;;;13.98
43292;BMP280;28754;47.700;7.924;2023-05-10T11:37:47;91216.97;;;14.02
43292;BMP280;28754;47.700;7.924;2023-05-10T11:40:35;91211.94;;;14.10
43292;BMP280;28754;47.700;7.924;2023-05-10T11:43:25;91211.09;;;14.15
43292;BMP280;28754;47.700;7.924;2023-05-10T11:46:16;91206.91;;;14.19
43292;BMP280;28754;47.700;7.924;2023-05-10T11:49:04;91217.31;;;14.14
43292;BMP280;28754;47.700;7.924;2023-05-10T11:51:53;91206.31;;;14.08
43292;BMP280;28754;47.700;7.924;2023-05-10T11:55:00;91211.66;;;14.12
43292;BMP280;28754;47.700;7.924;2023-05-10T11:57:47;91211.66;;;14.12
43292;BMP280;28754;47.700;7.924;2023-05-10T12:00:33;91215.47;;;14.14
43292;BMP280;28754;47.700;7.924;2023-05-10T12:03:20;91213.94;;;14.13
43292;BMP280;28754;47.700;7.924;2023-05-10T12:06:07;91207.38;;;14.07
43292;BMP280;28754;47.700;7.924;2023-05-10T12:08:57;91217.53;;;13.99
43292;BMP280;28754;47.700;7.924;2023-05-10T12:11:44;91207.34;;;13.89
43292;BMP280;28754;47.700;7.924;2023-05-10T12:18:39;91200.41;;;14.40
43292;BMP280;28754;47.700;7.924;2023-05-10T12:21:32;91203.28;;;14.65
43292;BMP280;28754;47.700;7.924;2023-05-10T12:24:26;91194.03;;;14.64
43292;BMP280;28754;47.700;7.924;2023-05-10T12:27:19;91207.88;;;14.54
43292;BMP280;28754;47.700;7.924;2023-05-10T12:30:11;91208.88;;;14.40
43292;BMP280;28754;47.700;7.924;2023-05-10T12:33:09;91211.69;;;14.25
43292;BMP280;28754;47.700;7.924;2023-05-10T12:35:59;91205.41;;;14.18
43292;BMP280;28754;47.700;7.924;2023-05-10T12:38:46;91212.16;;;14.14
43292;BMP280;28754;47.700;7.924;2023-05-10T12:41:36;91213.03;;;14.23
43292;BMP280;28754;47.700;7.924;2023-05-10T12:44:23;91205.69;;;14.30
43292;BMP280;28754;47.700;7.924;2023-05-10T12:47:10;91213.16;;;14.31
43292;BMP280;28754;47.700;7.924;2023-05-10T12:49:57;91207.91;;;14.36
43292;BMP280;28754;47.700;7.924;2023-05-10T12:52:44;91204.59;;;14.36
43292;BMP280;28754;47.700;7.924;2023-05-10T12:55:30;91217.94;;;14.38
43292;BMP280;28754;47.700;7.924;2023-05-10T12:58:17;91206.97;;;14.45
43292;BMP280;28754;47.700;7.924;2023-05-10T13:01:05;91206.06;;;14.55
43292;BMP280;28754;47.700;7.924;2023-05-10T13:03:51;91203.19;;;14.56
43292;BMP280;28754;47.700;7.924;2023-05-10T13:06:41;91203.38;;;14.60
43292;BMP280;28754;47.700;7.924;2023-05-10T13:09:45;91193.47;;;14.67
43292;BMP280;28754;47.700;7.924;2023-05-10T13:12:34;91204.19;;;14.74
43292;BMP280;28754;47.700;7.924;2023-05-10T13:15:21;91209.59;;;14.72
43292;BMP280;28754;47.700;7.924;2023-05-10T13:18:08;91203.38;;;14.60
43292;BMP280;28754;47.700;7.924;2023-05-10T13:20:58;91211.00;;;14.51
43292;BMP280;28754;47.700;7.924;2023-05-10T13:23:47;91209.84;;;14.44
43292;BMP280;28754;47.700;7.924;2023-05-10T13:26:37;91208.03;;;14.44
43292;BMP280;28754;47.700;7.924;2023-05-10T13:29:26;91204.88;;;14.47
43292;BMP280;28754;47.700;7.924;2023-05-10T13:32:13;91211.47;;;14.53
43292;BMP280;28754;47.700;7.924;2023-05-10T13:35:03;91212.53;;;14.52
43292;BMP280;28754;47.700;7.924;2023-05-10T13:37:55;91203.97;;;14.70
43292;BMP280;28754;47.700;7.924;2023-05-10T13:44:41;91191.69;;;15.34
43292;BMP280;28754;47.700;7.924;2023-05-10T13:48:20;91194.03;;;15.57
43292;BMP280;28754;47.700;7.924;2023-05-10T13:51:15;91202.69;;;15.61
43292;BMP280;28754;47.700;7.924;2023-05-10T13:54:04;91205.66;;;15.68
43292;BMP280;28754;47.700;7.924;2023-05-10T13:56:51;91197.53;;;15.61
43292;BMP280;28754;47.700;7.924;2023-05-10T13:59:41;91201.47;;;15.58
43292;BMP280;28754;47.700;7.924;2023-05-10T14:02:28;91191.72;;;15.55
43292;BMP280;28754;47.700;7.924;2023-05-10T14:05:14;91189.81;;;15.47
43292;BMP280;28754;47.700;7.924;2023-05-10T14:08:04;91190.22;;;15.41
43292;BMP280;28754;47.700;7.924;2023-05-10T14:10:56;91195.13;;;15.29
43292;BMP280;28754;47.700;7.924;2023-05-10T14:13:45;91180.91;;;15.18
43292;BMP280;28754;47.700;7.924;2023-05-10T14:16:46;91186.06;;;15.18
43292;BMP280;28754;47.700;7.924;2023-05-10T14:19:40;91178.88;;;15.15
43292;BMP280;28754;47.700;7.924;2023-05-10T14:22:26;91188.44;;;15.15
43292;BMP280;28754;47.700;7.924;2023-05-10T14:25:14;91187.97;;;15.13
43292;BMP280;28754;47.700;7.924;2023-05-10T14:28:00;91184.72;;;15.21
43292;BMP280;28754;47.700;7.924;2023-05-10T14:30:47;91182.22;;;15.29
43292;BMP280;28754;47.700;7.924;2023-05-10T14:33:37;91177.59;;;15.40
43292;BMP280;28754;47.700;7.924;2023-05-10T14:36:23;91173.38;;;15.57
43292;BMP280;28754;47.700;7.924;2023-05-10T14:39:10;91174.44;;;15.78
43292;BMP280;28754;47.700;7.924;2023-05-10T14:42:04;91171.88;;;15.78
43292;BMP280;28754;47.700;7.924;2023-05-10T14:44:51;91173.69;;;15.77
43292;BMP280;28754;47.700;7.924;2023-05-10T14:47:38;91167.31;;;15.75
43292;BMP280;28754;47.700;7.924;2023-05-10T14:50:27;91171.19;;;15.85
43292;BMP280;28754;47.700;7.924;2023-05-10T14:53:16;91176.69;;;15.92
43292;BMP280;28754;47.700;7.924;2023-05-10T14:56:03;91174.00;;;15.97
43292;BMP280;28754;47.700;7.924;2023-05-10T14:58:50;91177.03;;;15.99
43292;BMP280;28754;47.700;7.924;2023-05-10T15:01:39;91168.38;;;15.95
43292;BMP280;28754;47.700;7.924;2023-05-10T15:04:28;91175.19;;;15.91
43292;BMP280;28754;47.700;7.924;2023-05-10T15:07:15;91172.88;;;15.90
43292;BMP280;28754;47.700;7.924;2023-05-10T15:10:10;91173.28;;;15.83
43292;BMP280;28754;47.700;7.924;2023-05-10T15:12:58;91174.63;;;15.81
43292;BMP280;28754;47.700;7.924;2023-05-10T15:15:45;91176.16;;;15.82
43292;BMP280;28754;47.700;7.924;2023-05-10T15:18:32;91178.09;;;15.77
43292;BMP280;28754;47.700;7.924;2023-05-10T15:21:18;91172.88;;;15.68
43292;BMP280;28754;47.700;7.924;2023-05-10T15:24:11;91162.88;;;15.53
43292;BMP280;28754;47.700;7.924;2023-05-10T15:27:10;91172.53;;;15.48
43292;BMP280;28754;47.700;7.924;2023-05-10T15:29:59;91178.47;;;15.35
43292;BMP280;28754;47.700;7.924;2023-05-10T15:32:46;91181.56;;;15.24
43292;BMP280;28754;47.700;7.924;2023-05-10T15:35:38;91183.88;;;15.12
43292;BMP280;28754;47.700;7.924;2023-05-10T15:38:53;91193.88;;;15.00
43292;BMP280;28754;47.700;7.924;2023-05-10T15:41:54;91177.06;;;14.89
43292;BMP280;28754;47.700;7.924;2023-05-10T15:45:02;91190.44;;;14.78
43292;BMP280;28754;47.700;7.924;2023-05-10T15:48:12;91191.66;;;14.67
43292;BMP280;28754;47.700;7.924;2023-05-10T15:51:02;91205.84;;;14.65
43292;BMP280;28754;47.700;7.924;2023-05-10T16:02:14;91206.75;;;14.29
43292;BMP280;28754;47.700;7.924;2023-05-10T16:05:03;91207.13;;;14.22
43292;BMP280;28754;47.700;7.924;2023-05-10T16:08:11;91213.13;;;14.18
43292;BMP280;28754;47.700;7.924;2023-05-10T16:11:03;91212.91;;;14.14
43292;BMP280;28754;47.700;7.924;2023-05-10T16:40:51;91223.25;;;14.73
43292;BMP280;28754;47.700;7.924;2023-05-10T16:52:36;91222.28;;;14.24
43292;BMP280;28754;47.700;7.924;2023-05-10T17:04:38;91234.75;;;14.17
43292;BMP280;28754;47.700;7.924;2023-05-10T17:07:31;91241.44;;;14.18
43292;BMP280;28754;47.700;7.924;2023-05-10T17:10:21;91247.13;;;14.15
43292;BMP280;28754;47.700;7.924;2023-05-10T17:13:10;91245.41;;;14.10
43292;BMP280;28754;47.700;7.924;2023-05-10T17:15:59;91252.00;;;13.98
43292;BMP280;28754;47.700;7.924;2023-05-10T17:18:48;91260.38;;;13.90
43292;BMP280;28754;47.700;7.924;2023-05-10T17:21:35;91239.16;;;13.80
43292;BMP280;28754;47.700;7.924;2023-05-10T17:24:22;91246.94;;;13.75
43292;BMP280;28754;47.700;7.924;2023-05-10T17:27:09;91244.38;;;13.75
43292;BMP280;28754;47.700;7.924;2023-05-10T17:29:56;91247.97;;;13.74
43292;BMP280;28754;47.700;7.924;2023-05-10T17:32:43;91234.63;;;13.72
43292;BMP280;28754;47.700;7.924;2023-05-10T17:35:31;91242.91;;;13.69
43292;BMP280;28754;47.700;7.924;2023-05-10T17:38:17;91231.06;;;13.68
43292;BMP280;28754;47.700;7.924;2023-05-10T17:41:14;91215.44;;;13.65
43292;BMP280;28754;47.700;7.924;2023-05-10T17:44:22;91223.34;;;13.68
43292;BMP280;28754;47.700;7.924;2023-05-10T17:51:59;91212.88;;;13.65
43292;BMP280;28754;47.700;7.924;2023-05-10T17:54:52;91234.63;;;13.72
43292;BMP280;28754;47.700;7.924;2023-05-10T17:57:39;91231.28;;;13.72